Etusivu
METAR-TAF:

METAR-TAF

Lentoasemat :

Santo Domingo, Dominikaaninen tasavalta

Leveyspiiri: 18-34-32N, Pituuspiiri: 069-58-53W, korkeus merenpinnasta: 15 m

Tämänhetkinen sää

Tämä raportti tehtiin 1 tunti ja 0 minuuttia sitten, kello 01.00 UTC
tyyntä
Lämpötila 24°C
Kosteus 74%
Ilmanpaine 1015 hPa
Näkyvyys 10 km tai enemmän
Muutamia pilviä 1600 ft:n korkeudessa

METAR: MDJB 240100Z 00000KT 9999 FEW016 24/19 Q1015

Aika: 22:00 (02:00 UTC)

Sääennuste

Tämä raportti tehtiin 4 tuntia ja 0 minuuttia sitten, kello 22.00 UTC
Ennuste voimassa 24. päivästä klo 00 UTC - 25. päivään klo 00 UTC
Tuuli 10 kn etelästä
Näkyvyys 10 km tai enemmän
Muutamia pilviä 1600 ft:n korkeudessa
Tulossa
24. päivästä klo 00 UTC - 24. päivään klo 06 UTC
Tuuli kn pohjoisesta

TAF: MDJB 232200Z 2400/2500 18010KT 9999 FEW016 BECMG 2400/2406 00000KT

Säähavainnot ja -ennusteet yli 4000 lentoasemalta (METAR- ja TAF-raportit).

Käytössä olevat sääasemat on merkitty karttaan keltaisilla ja punaisilla pisteillä.

Aseta hiiri pisteen päälle nähdäksesi sääaseman nimen.

Klikkaa sitten nähdäksesi säähavainnot ja -ennusteet.

Kartan vaihtaminen: klikkaa mustalla rastilla varustettuja vihreitä pisteitä, niin voit zoomata sisään; viivalla varustettua vihreää pistettä, niin voit zoomata ulos tai vihreitä nuolia, niin pääset viereisille kartoille.


METAR-TAF: